Time;durP1;ratioP1;P1;durP2;ratioP2;P2;SDS_P1;SDS_P2;PMS_P1;PMS_P2;Temp;Humidity;BMP_temperature;BMP_pressure;BME280_temperature;BME280_humidity;BME280_pressure;Samples;Min_cycle;Max_cycle;Signal;HPM_P1;HPM_P2
2023/10/14 00:01:36;;;;;;;11.02;6.10;;;;;;;18.02;56.66;100233.28;5129404;27;20031;-63
2023/10/14 00:04:09;;;;;;;15.32;7.70;;;;;;;18.01;56.68;100236.16;5126124;27;20106;-63
2023/10/14 00:06:38;;;;;;;12.00;7.00;;;;;;;18.00;57.13;100229.13;5124176;27;20042;-63
2023/10/14 00:09:13;;;;;;;13.75;7.22;;;;;;;17.95;57.15;100232.41;5124431;27;20075;-63
2023/10/14 00:11:54;;;;;;;15.25;8.13;;;;;;;17.86;57.78;100234.41;5125084;27;20031;-63
2023/10/14 00:14:22;;;;;;;11.88;7.35;;;;;;;17.81;58.17;100236.03;5123345;27;20451;-63
2023/10/14 00:16:54;;;;;;;16.00;7.68;;;;;;;17.72;58.70;100223.81;5123623;27;20026;-63
2023/10/14 00:19:22;;;;;;;13.38;7.22;;;;;;;17.67;58.86;100215.53;5123435;27;20374;-63
2023/10/14 00:21:49;;;;;;;18.20;7.40;;;;;;;17.75;58.54;100210.03;5131180;27;20233;-64
2023/10/14 00:24:25;;;;;;;16.25;7.78;;;;;;;17.81;58.38;100210.06;5133006;27;20359;-63
2023/10/14 00:26:51;;;;;;;10.75;6.95;;;;;;;17.84;57.10;100198.13;5123985;27;20047;-63
2023/10/14 00:29:19;;;;;;;15.32;7.00;;;;;;;17.74;57.46;100203.84;5132295;27;20044;-63
2023/10/14 00:31:52;;;;;;;18.83;8.32;;;;;;;17.70;58.25;100201.78;5123027;27;20030;-63
2023/10/14 00:34:25;;;;;;;15.95;8.15;;;;;;;17.72;58.23;100197.03;5124553;27;20027;-63
2023/10/14 00:36:53;;;;;;;12.50;7.47;;;;;;;17.69;59.05;100192.91;5124150;27;20036;-63
2023/10/14 00:39:24;;;;;;;14.38;7.43;;;;;;;17.62;59.23;100196.50;5128597;27;20058;-63
2023/10/14 00:41:50;;;;;;;18.83;7.93;;;;;;;17.48;59.39;100191.06;5125383;27;20125;-63
2023/10/14 00:44:17;;;;;;;13.23;8.13;;;;;;;17.51;59.34;100189.84;5122927;27;20050;-63
2023/10/14 00:46:48;;;;;;;16.65;7.82;;;;;;;17.53;58.83;100193.97;5131103;27;20098;-63
2023/10/14 00:49:15;;;;;;;13.40;7.28;;;;;;;17.53;56.92;100198.50;5131135;27;20058;-64
2023/10/14 00:51:45;;;;;;;14.75;7.63;;;;;;;17.33;57.28;100194.88;5123233;27;20345;-63
2023/10/14 00:54:12;;;;;;;11.35;7.55;;;;;;;17.32;58.67;100190.53;5133039;27;20274;-63
2023/10/14 00:56:40;;;;;;;14.93;7.63;;;;;;;17.33;58.94;100186.84;5123123;27;20039;-63
2023/10/14 00:59:07;;;;;;;11.68;7.63;;;;;;;17.32;58.27;100185.19;5124797;27;20066;-63
2023/10/14 01:01:48;;;;;;;12.50;7.82;;;;;;;17.33;58.65;100179.63;5123171;27;20262;-63
2023/10/14 01:04:21;;;;;;;12.93;7.60;;;;;;;17.24;58.76;100175.47;5123011;27;20209;-63
2023/10/14 01:12:28;;;;;;;15.45;7.47;;;;;;;17.22;59.17;100170.28;5123472;27;20344;-63
2023/10/14 01:14:58;;;;;;;13.18;7.75;;;;;;;17.23;58.73;100166.59;5123106;27;20054;-63
2023/10/14 01:17:30;;;;;;;17.27;8.45;;;;;;;17.22;57.48;100158.75;5123528;27;20058;-63
2023/10/14 01:20:46;;;;;;;16.35;7.47;;;;;;;17.26;58.32;100159.19;5121668;27;20063;-63
2023/10/14 01:22:51;;;;;;;14.20;7.63;;;;;;;17.17;58.36;100154.00;5114085;27;20058;-63
2023/10/14 01:25:18;;;;;;;12.27;7.30;;;;;;;17.14;58.27;100153.56;5122397;27;20035;-63
2023/10/14 01:27:44;;;;;;;13.20;8.18;;;;;;;17.11;58.62;100151.28;5123313;27;20072;-64
2023/10/14 01:30:25;;;;;;;11.85;7.10;;;;;;;17.11;58.55;100141.41;5122594;27;20036;-63
2023/10/14 01:32:50;;;;;;;15.23;7.70;;;;;;;17.09;58.71;100143.44;5122692;27;20035;-63
2023/10/14 01:37:51;;;;;;;12.45;6.75;;;;;;;17.01;58.59;100140.91;5122592;27;20054;-63
2023/10/14 01:40:40;;;;;;;15.05;7.45;;;;;;;16.99;58.25;100144.81;5122386;27;20049;-63
2023/10/14 01:43:08;;;;;;;10.90;6.80;;;;;;;16.95;58.68;100149.72;5121156;27;20075;-64
2023/10/14 01:45:50;;;;;;;10.75;6.70;;;;;;;16.90;58.51;100144.13;5122661;27;20040;-63
2023/10/14 01:48:21;;;;;;;13.20;7.80;;;;;;;16.89;58.58;100142.47;5130815;27;20042;-63
2023/10/14 01:50:54;;;;;;;14.50;6.75;;;;;;;16.91;58.55;100146.59;5130363;27;20066;-63
2023/10/14 01:53:34;;;;;;;12.00;7.32;;;;;;;16.89;58.42;100151.31;5131339;27;20108;-63
2023/10/14 01:56:01;;;;;;;15.02;7.25;;;;;;;16.94;58.64;100152.56;5122208;27;20027;-63
2023/10/14 02:01:04;;;;;;;14.98;6.97;;;;;;;16.81;58.70;100147.94;5122658;27;20217;-63
2023/10/14 02:03:33;;;;;;;13.95;7.07;;;;;;;16.75;59.49;100146.03;5121930;27;20073;-63
2023/10/14 02:05:58;;;;;;;12.30;6.97;;;;;;;16.83;59.17;100148.59;5121675;27;20486;-63
2023/10/14 02:08:24;;;;;;;13.43;6.95;;;;;;;16.83;58.99;100146.72;5122410;27;20418;-63
2023/10/14 02:10:50;;;;;;;12.82;7.25;;;;;;;16.75;58.87;100146.03;5121828;28;20044;-63
2023/10/14 02:13:21;;;;;;;11.30;6.97;;;;;;;16.79;59.17;100140.13;5121833;27;20027;-65
2023/10/14 02:15:47;;;;;;;10.98;7.70;;;;;;;16.79;59.09;100152.66;5128796;28;20031;-63
2023/10/14 02:18:22;;;;;;;11.27;7.13;;;;;;;16.81;58.83;100143.44;5121460;28;20034;-63
2023/10/14 02:21:05;;;;;;;11.45;7.60;;;;;;;16.81;58.50;100151.44;5121656;28;20277;-63
2023/10/14 02:23:47;;;;;;;20.45;9.40;;;;;;;16.77;58.57;100152.03;5121286;28;20103;-63
2023/10/14 02:26:22;;;;;;;17.02;7.88;;;;;;;16.69;58.89;100150.31;5120405;28;20361;-62
2023/10/14 02:28:49;;;;;;;11.98;7.32;;;;;;;16.70;58.50;100143.94;5121243;28;20080;-64
2023/10/14 02:31:25;;;;;;;12.45;7.63;;;;;;;16.68;58.72;100145.16;5132204;28;20051;-63
2023/10/14 02:33:51;;;;;;;11.73;7.63;;;;;;;16.55;56.03;100148.47;5121975;28;20046;-64
2023/10/14 02:36:17;;;;;;;14.05;7.68;;;;;;;16.28;58.55;100148.19;5121598;28;20221;-63
2023/10/14 02:38:45;;;;;;;13.73;7.45;;;;;;;16.00;59.51;100149.94;5122344;28;20031;-63
2023/10/14 02:41:14;;;;;;;14.52;7.85;;;;;;;15.98;59.51;100148.47;5121343;28;20027;-63
2023/10/14 02:43:41;;;;;;;16.55;7.78;;;;;;;16.03;59.37;100141.53;5122283;28;20043;-63
2023/10/14 02:46:10;;;;;;;14.95;7.30;;;;;;;16.04;59.18;100148.53;5121429;28;20249;-63
2023/10/14 02:49:02;;;;;;;14.30;7.50;;;;;;;16.03;59.16;100143.38;5121182;28;20218;-63
2023/10/14 02:51:31;;;;;;;13.80;7.22;;;;;;;16.05;59.46;100139.50;5121790;28;20306;-63
2023/10/14 02:54:03;;;;;;;16.35;7.85;;;;;;;16.08;60.60;100141.81;5121449;28;20333;-63
2023/10/14 02:59:15;;;;;;;12.25;6.88;;;;;;;15.98;60.84;100140.44;5124814;27;20058;-62
2023/10/14 03:01:43;;;;;;;14.75;7.15;;;;;;;15.89;61.59;100137.88;5106484;27;20031;-62
2023/10/14 03:04:09;;;;;;;13.57;6.82;;;;;;;15.87;61.43;100137.25;5124752;27;20334;-63
2023/10/14 03:06:46;;;;;;;12.38;6.55;;;;;;;15.93;61.79;100143.69;5106395;27;20094;-63
2023/10/14 03:09:17;;;;;;;12.88;7.32;;;;;;;15.96;61.58;100136.13;5126260;27;20035;-64
2023/10/14 03:11:44;;;;;;;11.88;6.65;;;;;;;16.00;61.05;100139.25;5125561;27;20031;-62
2023/10/14 03:14:10;;;;;;;13.88;7.05;;;;;;;15.91;60.90;100138.53;5124775;27;20027;-64
2023/10/14 03:16:35;;;;;;;12.98;7.43;;;;;;;15.85;60.89;100128.59;5125327;27;20038;-62
2023/10/14 03:19:02;;;;;;;13.43;7.05;;;;;;;15.93;61.09;100141.00;5124893;27;20065;-61
2023/10/14 03:21:30;;;;;;;12.25;7.07;;;;;;;15.94;60.92;100138.16;5124834;27;20030;-62
2023/10/14 03:23:57;;;;;;;12.30;6.93;;;;;;;15.95;60.88;100142.47;5131038;27;20152;-62
2023/10/14 03:26:28;;;;;;;11.18;6.53;;;;;;;15.92;61.48;100140.19;5133746;27;20042;-64
2023/10/14 03:28:56;;;;;;;10.88;6.35;;;;;;;15.86;61.33;100140.09;5123566;27;20051;-62
2023/10/14 03:31:24;;;;;;;9.02;6.50;;;;;;;15.85;61.15;100143.78;5125029;27;20028;-62
2023/10/14 03:33:52;;;;;;;12.07;6.75;;;;;;;15.83;61.38;100143.97;5125142;27;20035;-62
2023/10/14 03:36:22;;;;;;;8.15;5.78;;;;;;;15.85;61.54;100141.94;5132933;27;20039;-62
2023/10/14 03:38:55;;;;;;;13.52;6.40;;;;;;;15.88;61.04;100132.72;5124537;27;20058;-61
2023/10/14 03:41:21;;;;;;;9.02;6.05;;;;;;;15.86;59.79;100142.78;5124757;27;20210;-62
2023/10/14 03:43:58;;;;;;;13.05;6.70;;;;;;;15.75;58.58;100141.41;5125060;27;20057;-62
2023/10/14 03:46:41;;;;;;;11.25;7.53;;;;;;;15.72;58.58;100140.94;5124975;27;20039;-62
2023/10/14 03:49:11;;;;;;;13.02;6.20;;;;;;;15.65;58.89;100138.19;5124079;27;20221;-62
2023/10/14 03:51:37;;;;;;;11.40;6.72;;;;;;;15.62;58.43;100136.72;5124107;27;20027;-62
2023/10/14 03:54:19;;;;;;;12.68;6.43;;;;;;;15.61;58.60;100135.06;5132980;27;20051;-64
2023/10/14 03:56:46;;;;;;;12.45;6.55;;;;;;;15.60;59.64;100135.22;5124120;27;20075;-63
2023/10/14 03:59:26;;;;;;;10.52;6.50;;;;;;;15.54;57.64;100135.91;5123703;27;20028;-62
2023/10/14 04:02:02;;;;;;;10.20;6.05;;;;;;;15.48;57.10;100140.16;5115564;27;20333;-61
2023/10/14 04:04:29;;;;;;;11.98;5.95;;;;;;;15.41;57.59;100141.06;5123103;27;20039;-62
2023/10/14 04:09:36;;;;;;;12.52;6.07;;;;;;;15.26;58.27;100136.56;5124190;27;20039;-64
2023/10/14 04:12:07;;;;;;;17.05;7.07;;;;;;;15.21;60.26;100130.13;5125261;27;20049;-65
2023/10/14 04:14:35;;;;;;;15.30;8.13;;;;;;;15.18;61.55;100144.66;5124661;27;20055;-64
2023/10/14 04:17:10;;;;;;;13.15;6.75;;;;;;;15.26;61.18;100135.72;5133448;27;20353;-62
2023/10/14 04:20:37;;;;;;;12.73;6.90;;;;;;;15.26;61.07;100146.41;5123649;27;20035;-64
2023/10/14 04:22:31;;;;;;;15.38;7.97;;;;;;;15.25;62.27;100137.56;5110097;27;20263;-62
2023/10/14 04:30:24;;;;;;;14.32;6.82;;;;;;;15.23;57.52;100149.44;5123243;27;20038;-62
2023/10/14 04:35:25;;;;;;;13.63;7.03;;;;;;;15.15;58.60;100147.69;5121492;27;20084;-63
2023/10/14 04:37:54;;;;;;;12.30;6.60;;;;;;;15.10;60.18;100146.56;5133551;27;20066;-63
2023/10/14 04:43:37;;;;;;;17.25;7.60;;;;;;;15.04;58.93;100149.97;5124276;27;20043;-61
2023/10/14 04:46:13;;;;;;;38.53;9.40;;;;;;;14.99;60.28;100148.66;5122980;27;20054;-61
2023/10/14 04:48:39;;;;;;;138.93;18.75;;;;;;;14.95;61.44;100146.53;5122834;27;20147;-61
2023/10/14 04:51:10;;;;;;;77.68;15.13;;;;;;;15.02;61.84;100150.13;5123968;27;20028;-62
2023/10/14 04:53:36;;;;;;;38.78;9.90;;;;;;;15.08;61.41;100145.91;5123260;27;20317;-62
2023/10/14 04:56:08;;;;;;;32.30;9.48;;;;;;;15.14;61.94;100150.53;5123083;27;20043;-62
2023/10/14 04:58:34;;;;;;;23.48;8.60;;;;;;;15.14;60.92;100155.84;5122407;27;20098;-64
2023/10/14 05:01:00;;;;;;;23.38;8.15;;;;;;;15.10;60.89;100150.06;5123321;27;20249;-62
2023/10/14 05:03:30;;;;;;;19.27;8.27;;;;;;;15.08;62.02;100156.59;5122978;27;20031;-63
2023/10/14 05:05:56;;;;;;;17.02;8.55;;;;;;;15.01;62.85;100151.97;5122564;27;20113;-62
2023/10/14 05:08:36;;;;;;;16.63;8.57;;;;;;;14.93;63.53;100149.38;5122951;27;20070;-62
2023/10/14 05:11:03;;;;;;;24.02;9.50;;;;;;;14.77;64.52;100165.50;5122994;27;20325;-62
2023/10/14 05:13:31;;;;;;;23.88;8.48;;;;;;;14.88;63.79;100164.25;5123347;27;20368;-62
2023/10/14 05:16:15;;;;;;;52.55;13.10;;;;;;;14.97;64.06;100168.50;5122468;27;20443;-62
2023/10/14 05:18:57;;;;;;;16.73;8.57;;;;;;;15.09;63.88;100161.75;5132650;27;20263;-62
2023/10/14 05:21:36;;;;;;;18.75;9.07;;;;;;;15.21;63.36;100162.13;5122417;27;20098;-62
2023/10/14 05:24:10;;;;;;;26.85;9.98;;;;;;;15.22;64.17;100167.28;5122706;27;20318;-62
2023/10/14 05:26:44;;;;;;;28.38;12.82;;;;;;;15.32;64.07;100172.34;5131042;27;20043;-62
2023/10/14 05:29:16;;;;;;;25.27;10.98;;;;;;;15.39;64.09;100167.94;5127830;27;20035;-63
2023/10/14 05:31:46;;;;;;;19.80;9.47;;;;;;;15.48;64.21;100171.34;5122268;27;20035;-62
2023/10/14 05:34:11;;;;;;;23.10;10.32;;;;;;;15.48;64.33;100177.53;5123457;27;20085;-62
2023/10/14 05:36:37;;;;;;;16.67;9.30;;;;;;;15.52;64.05;100175.31;5122694;27;20031;-62
2023/10/14 05:39:03;;;;;;;21.33;9.85;;;;;;;15.67;64.38;100176.22;5122615;27;20040;-62
2023/10/14 05:41:30;;;;;;;27.15;11.38;;;;;;;15.79;64.05;100185.41;5122870;27;20043;-62
2023/10/14 05:43:55;;;;;;;25.77;12.98;;;;;;;15.91;63.72;100185.75;5121522;27;20293;-62
2023/10/14 05:46:21;;;;;;;25.85;13.43;;;;;;;15.98;63.68;100180.50;5123068;27;20653;-63
2023/10/14 05:48:46;;;;;;;20.02;11.23;;;;;;;16.07;63.21;100184.72;5122921;27;20054;-62
2023/10/14 05:51:15;;;;;;;15.00;9.88;;;;;;;16.19;62.66;100185.91;5122870;27;20035;-62
2023/10/14 05:53:42;;;;;;;16.42;8.32;;;;;;;16.41;61.12;100186.78;5122099;27;20233;-63
2023/10/14 05:56:14;;;;;;;15.93;7.60;;;;;;;16.56;60.48;100190.22;5122527;27;20047;-62
2023/10/14 05:58:43;;;;;;;13.27;7.57;;;;;;;16.72;59.76;100187.38;5122445;27;20075;-62
2023/10/14 06:01:13;;;;;;;17.48;7.78;;;;;;;16.73;59.30;100174.81;5122985;27;20035;-63
2023/10/14 06:03:41;;;;;;;15.45;6.65;;;;;;;16.71;59.20;100177.69;5122136;27;20329;-62
2023/10/14 06:06:09;;;;;;;15.60;8.40;;;;;;;16.84;59.45;100183.16;5122118;27;20099;-63
2023/10/14 06:08:38;;;;;;;15.25;8.30;;;;;;;17.00;59.01;100181.22;5121362;27;20088;-62
2023/10/14 06:11:06;;;;;;;12.50;7.50;;;;;;;17.29;58.32;100181.06;5122228;27;20031;-63
2023/10/14 06:13:35;;;;;;;13.82;7.22;;;;;;;17.52;57.80;100180.78;5122495;27;20043;-62
2023/10/14 06:16:09;;;;;;;9.80;6.90;;;;;;;17.65;56.98;100188.06;5121429;28;20039;-63
2023/10/14 06:18:35;;;;;;;12.10;6.88;;;;;;;17.73;56.76;100186.13;5120968;28;20367;-62
2023/10/14 06:21:01;;;;;;;11.00;6.07;;;;;;;17.88;56.95;100171.78;5122000;28;20038;-63
2023/10/14 06:23:26;;;;;;;12.25;5.95;;;;;;;17.88;55.78;100177.97;5121052;28;20032;-63
2023/10/14 06:25:53;;;;;;;13.77;7.30;;;;;;;18.10;55.01;100178.69;5121021;28;20038;-63
2023/10/14 06:28:19;;;;;;;16.17;11.20;;;;;;;18.26;55.04;100182.84;5120838;28;20034;-62
2023/10/14 06:30:45;;;;;;;13.07;8.57;;;;;;;18.17;55.07;100180.34;5125309;27;20208;-63
2023/10/14 06:33:11;;;;;;;12.98;6.85;;;;;;;18.30;54.44;100179.56;5125446;27;20435;-63
2023/10/14 06:35:42;;;;;;;12.95;5.80;;;;;;;18.44;54.72;100185.78;5125171;27;20043;-63
2023/10/14 06:38:11;;;;;;;10.02;5.88;;;;;;;18.58;54.18;100181.28;5125411;27;20107;-63
2023/10/14 06:40:37;;;;;;;9.45;6.70;;;;;;;18.68;53.36;100176.38;5125349;27;20031;-63
2023/10/14 06:43:13;;;;;;;11.80;8.15;;;;;;;18.84;53.87;100184.06;5125375;27;20345;-63
2023/10/14 06:45:39;;;;;;;10.45;5.43;;;;;;;18.83;53.12;100176.22;5124904;27;20039;-63
2023/10/14 06:48:09;;;;;;;9.50;6.35;;;;;;;18.73;53.64;100158.69;5124560;27;20041;-63
2023/10/14 06:50:37;;;;;;;7.60;4.72;;;;;;;18.89;53.88;100178.91;5137764;27;20038;-63
2023/10/14 06:53:07;;;;;;;6.63;4.45;;;;;;;18.93;52.88;100168.59;5137766;27;20080;-63
2023/10/14 06:55:37;;;;;;;8.63;4.70;;;;;;;19.12;53.00;100173.97;5136982;27;20081;-62
2023/10/14 06:58:21;;;;;;;14.30;6.95;;;;;;;19.36;53.21;100166.31;5137842;27;20216;-63
2023/10/14 07:00:48;;;;;;;12.23;5.63;;;;;;;19.48;52.81;100161.94;5136936;27;20068;-63
2023/10/14 07:03:14;;;;;;;11.68;5.20;;;;;;;19.59;52.51;100168.56;5137406;27;20099;-63
2023/10/14 07:05:56;;;;;;;10.63;6.03;;;;;;;19.70;53.32;100165.22;5138101;27;20046;-63
2023/10/14 07:08:23;;;;;;;10.90;4.95;;;;;;;19.70;51.60;100159.84;5138047;27;20041;-63
2023/10/14 07:10:53;;;;;;;9.90;5.50;;;;;;;19.81;51.26;100158.41;5138320;27;20110;-63
2023/10/14 07:13:20;;;;;;;8.80;4.93;;;;;;;20.00;49.58;100158.31;5136273;27;20143;-63
2023/10/14 07:15:47;;;;;;;11.02;5.03;;;;;;;19.98;49.69;100156.88;5137927;27;20098;-63
2023/10/14 07:18:22;;;;;;;8.35;4.45;;;;;;;20.01;49.93;100159.16;5138242;27;20031;-63
2023/10/14 07:20:59;;;;;;;14.75;4.78;;;;;;;20.27;49.36;100158.19;5138822;27;20039;-64
2023/10/14 07:23:25;;;;;;;9.05;4.82;;;;;;;20.42;48.87;100150.69;5138240;27;20037;-63
2023/10/14 07:25:52;;;;;;;7.95;4.90;;;;;;;20.42;48.65;100150.69;5137834;27;20113;-63
2023/10/14 07:28:18;;;;;;;12.02;7.82;;;;;;;20.57;48.51;100151.22;5137844;27;20046;-63
2023/10/14 07:30:46;;;;;;;9.40;5.57;;;;;;;20.70;48.71;100150.31;5138287;27;20027;-63
2023/10/14 07:33:13;;;;;;;9.18;6.20;;;;;;;20.60;47.56;100145.41;5138302;27;20043;-63
2023/10/14 07:35:41;;;;;;;9.85;5.53;;;;;;;20.74;48.95;100148.81;5138251;27;20403;-63
2023/10/14 07:38:08;;;;;;;7.60;6.32;;;;;;;20.77;47.03;100139.50;5137825;27;20136;-63
2023/10/14 07:40:34;;;;;;;8.15;4.60;;;;;;;20.83;46.76;100136.78;5137285;27;20031;-63
2023/10/14 07:43:10;;;;;;;6.63;4.63;;;;;;;20.91;46.64;100135.69;5137395;27;20030;-63
2023/10/14 07:45:42;;;;;;;7.78;4.43;;;;;;;20.87;46.77;100135.28;5137029;27;20097;-63
2023/10/14 07:48:08;;;;;;;8.45;4.55;;;;;;;20.93;47.02;100129.03;5136809;27;20098;-63
2023/10/14 07:50:58;;;;;;;7.18;4.40;;;;;;;21.06;46.74;100133.47;5138260;27;20035;-63
2023/10/14 07:53:24;;;;;;;6.25;4.60;;;;;;;21.19;47.15;100127.16;5136772;27;20035;-63
2023/10/14 07:55:53;;;;;;;11.35;10.43;;;;;;;21.11;46.57;100122.88;5136586;27;20233;-63
2023/10/14 07:58:28;;;;;;;7.22;4.30;;;;;;;21.31;45.42;100125.41;5136511;27;20032;-62
2023/10/14 08:00:55;;;;;;;5.70;3.63;;;;;;;21.28;45.05;100120.47;5137133;27;20054;-63
2023/10/14 08:03:29;;;;;;;6.93;4.20;;;;;;;21.33;46.18;100121.44;5137494;27;20034;-63
2023/10/14 08:05:59;;;;;;;;;;;;;;;21.36;44.94;100125.56;5138370;27;20399;-64
2023/10/14 08:08:31;;;;;;;12.45;5.63;;;;;;;21.40;45.62;100115.16;5137139;27;19923;-63
2023/10/14 08:11:00;;;;;;;8.98;4.75;;;;;;;21.50;44.57;100118.16;5137416;27;20039;-63
2023/10/14 08:13:27;;;;;;;6.05;4.10;;;;;;;21.54;44.24;100109.41;5136928;27;20102;-63
2023/10/14 08:15:54;;;;;;;5.50;4.15;;;;;;;21.66;44.51;100115.69;5137109;27;20050;-63
2023/10/14 08:18:25;;;;;;;8.18;4.15;;;;;;;21.76;43.55;100101.66;5136934;27;20034;-63
2023/10/14 08:20:53;;;;;;;6.07;3.55;;;;;;;21.93;44.02;100107.31;5137934;27;20332;-63
2023/10/14 08:23:20;;;;;;;13.05;8.52;;;;;;;21.99;44.06;100101.81;5137646;27;20331;-64
2023/10/14 08:25:46;;;;;;;7.00;4.43;;;;;;;22.03;41.71;100104.09;5136589;27;20351;-63
2023/10/14 08:28:12;;;;;;;8.93;3.80;;;;;;;22.06;42.26;100103.63;5136676;27;20364;-63
2023/10/14 08:30:45;;;;;;;6.35;3.72;;;;;;;22.08;41.32;100105.06;5136826;27;20154;-63
2023/10/14 08:33:14;;;;;;;7.00;3.83;;;;;;;22.12;41.47;100106.25;5136862;27;20046;-63
2023/10/14 08:35:43;;;;;;;5.43;3.83;;;;;;;22.26;42.66;100099.59;5136287;27;20487;-64
2023/10/14 08:38:12;;;;;;;7.38;3.85;;;;;;;22.41;41.74;100088.38;5137476;27;20109;-64
2023/10/14 08:40:39;;;;;;;5.63;3.33;;;;;;;22.43;41.93;100091.69;5136623;27;20255;-63
2023/10/14 08:43:08;;;;;;;8.73;3.80;;;;;;;22.53;41.23;100085.72;5135419;27;20333;-64
2023/10/14 08:45:36;;;;;;;5.40;3.88;;;;;;;22.60;41.00;100081.84;5137699;27;20039;-64
2023/10/14 08:48:02;;;;;;;6.40;3.40;;;;;;;22.62;40.84;100076.22;5136490;27;20039;-63
2023/10/14 08:50:33;;;;;;;4.45;4.00;;;;;;;22.55;40.58;100073.63;5136712;27;20034;-62
2023/10/14 08:53:02;;;;;;;6.50;4.28;;;;;;;22.56;41.50;100077.97;5136192;27;20095;-62
2023/10/14 08:55:32;;;;;;;5.30;3.30;;;;;;;22.59;40.95;100069.41;5135473;27;20085;-63
2023/10/14 08:58:01;;;;;;;7.00;4.32;;;;;;;22.60;40.91;100062.97;5136176;27;20035;-62
2023/10/14 09:00:29;;;;;;;6.90;3.70;;;;;;;22.57;41.04;100058.03;5136709;27;20290;-62
2023/10/14 09:02:56;;;;;;;6.80;3.65;;;;;;;22.64;41.04;100060.63;5135812;27;20027;-62
2023/10/14 09:05:23;;;;;;;7.60;3.80;;;;;;;22.69;41.52;100055.34;5135996;27;20100;-62
2023/10/14 09:07:49;;;;;;;7.03;4.07;;;;;;;22.70;40.89;100054.28;5135747;27;20152;-62
2023/10/14 09:10:19;;;;;;;8.38;3.65;;;;;;;22.76;40.16;100049.81;5135634;27;20107;-62
2023/10/14 09:12:58;;;;;;;5.93;3.90;;;;;;;22.61;39.25;100050.28;5135550;27;20046;-62
2023/10/14 09:15:28;;;;;;;6.50;3.70;;;;;;;22.52;39.01;100043.59;5134982;27;20043;-62
2023/10/14 09:17:55;;;;;;;6.97;3.53;;;;;;;22.45;39.31;100041.00;5134745;27;20336;-62
2023/10/14 09:20:38;;;;;;;7.10;3.70;;;;;;;22.42;39.11;100036.06;5134514;27;20085;-63
2023/10/14 09:23:11;;;;;;;4.30;3.87;;;;;;;22.40;39.17;100034.66;5136113;27;20027;-62
2023/10/14 09:26:06;;;;;;;6.70;4.20;;;;;;;22.37;39.92;100029.72;5134472;27;20254;-62
2023/10/14 09:28:40;;;;;;;9.75;5.03;;;;;;;22.38;40.32;100020.56;5128898;27;20046;-63
2023/10/14 09:31:10;;;;;;;7.20;3.90;;;;;;;22.43;40.13;100020.69;5135353;27;20043;-62
2023/10/14 09:33:43;;;;;;;4.78;4.07;;;;;;;22.39;39.59;100016.81;5134622;27;20034;-62
2023/10/14 09:36:11;;;;;;;7.50;4.72;;;;;;;22.37;40.13;100008.97;5130919;27;20055;-61
2023/10/14 09:38:38;;;;;;;8.23;5.00;;;;;;;22.35;40.42;100008.38;5112544;27;20031;-63
2023/10/14 09:41:07;;;;;;;17.10;6.65;;;;;;;22.36;40.94;99993.84;5122277;27;20379;-62
2023/10/14 09:43:34;;;;;;;9.88;5.20;;;;;;;22.44;40.93;99995.38;5122839;27;20090;-63
2023/10/14 09:46:03;;;;;;;9.45;5.13;;;;;;;22.40;41.02;99986.91;5122893;27;20397;-62
2023/10/14 09:48:34;;;;;;;6.93;5.00;;;;;;;22.43;41.29;99983.75;5122433;27;20191;-62
2023/10/14 09:51:01;;;;;;;10.43;5.15;;;;;;;22.53;41.14;99983.16;5122208;27;20329;-62
2023/10/14 09:53:34;;;;;;;7.22;4.32;;;;;;;22.54;41.21;99968.63;5122284;27;20385;-62
2023/10/14 09:56:10;;;;;;;8.07;4.35;;;;;;;22.65;40.83;99964.28;5122534;27;20047;-62
2023/10/14 09:58:44;;;;;;;5.72;4.38;;;;;;;22.70;40.89;99962.50;5122256;27;20055;-62
2023/10/14 10:01:14;;;;;;;5.47;3.60;;;;;;;22.70;40.95;99961.69;5122104;27;20035;-62
2023/10/14 10:03:58;;;;;;;5.78;3.80;;;;;;;22.67;41.01;99952.19;5124954;27;20043;-62
2023/10/14 10:06:43;;;;;;;16.98;5.03;;;;;;;22.63;41.12;99948.31;5123013;27;20103;-62
2023/10/14 10:09:08;;;;;;;5.30;3.72;;;;;;;22.67;41.03;99946.78;5121655;27;20042;-62
2023/10/14 10:11:39;;;;;;;7.43;3.95;;;;;;;22.80;40.23;99938.47;5121059;27;20134;-62
2023/10/14 10:14:12;;;;;;;4.55;3.15;;;;;;;22.86;40.87;99934.81;5121543;27;20062;-62
2023/10/14 10:17:08;;;;;;;6.43;3.85;;;;;;;22.79;40.78;99930.56;5122560;27;20066;-62
2023/10/14 10:20:09;;;;;;;7.13;3.70;;;;;;;22.92;41.23;99923.09;5120221;27;20040;-62
2023/10/14 10:22:41;;;;;;;8.20;3.75;;;;;;;22.99;40.13;99922.97;5092938;28;20235;-62
2023/10/14 10:25:09;;;;;;;12.05;3.88;;;;;;;23.02;40.74;99911.69;5103371;28;20047;-62
2023/10/14 10:27:36;;;;;;;5.18;3.20;;;;;;;23.22;39.79;99916.66;5122111;28;20048;-62
2023/10/14 10:30:11;;;;;;;7.88;3.40;;;;;;;23.23;39.96;99905.63;5122255;28;20233;-63
2023/10/14 10:32:38;;;;;;;5.60;4.40;;;;;;;23.28;39.85;99895.97;5122281;28;20353;-62
2023/10/14 10:35:06;;;;;;;8.23;4.00;;;;;;;23.29;39.77;99893.03;5122010;28;20036;-61
2023/10/14 10:37:35;;;;;;;7.20;3.80;;;;;;;23.42;39.43;99894.63;5122341;28;20036;-62
2023/10/14 10:40:10;;;;;;;6.22;3.65;;;;;;;23.40;39.09;99877.84;5121912;28;20033;-62
2023/10/14 10:42:45;;;;;;;6.93;3.90;;;;;;;23.40;38.91;99875.94;5123885;28;20094;-62
2023/10/14 10:45:22;;;;;;;9.70;4.53;;;;;;;23.44;39.29;99874.41;5125887;28;20046;-62
2023/10/14 10:47:55;;;;;;;9.32;4.45;;;;;;;23.50;39.30;99864.50;5124234;27;20070;-62
2023/10/14 10:50:35;;;;;;;6.03;4.10;;;;;;;23.60;39.41;99859.31;5121495;28;20103;-62
2023/10/14 10:53:10;;;;;;;7.50;3.75;;;;;;;23.73;38.24;99844.66;5120390;28;20039;-62
2023/10/14 10:55:43;;;;;;;6.90;4.13;;;;;;;23.70;38.86;99842.44;5130656;28;20080;-62
2023/10/14 10:58:14;;;;;;;7.35;4.18;;;;;;;23.71;37.96;99839.47;5121707;28;20031;-62
2023/10/14 11:00:47;;;;;;;6.78;3.53;;;;;;;23.76;38.23;99833.34;5121625;28;20039;-63
2023/10/14 11:03:14;;;;;;;8.23;4.22;;;;;;;23.86;38.25;99830.78;5121655;28;20031;-62
2023/10/14 11:05:42;;;;;;;6.93;3.80;;;;;;;23.85;38.41;99823.75;5120961;28;20047;-62
2023/10/14 11:08:08;;;;;;;6.97;3.65;;;;;;;23.87;37.86;99825.13;5122352;28;20099;-62
2023/10/14 11:10:43;;;;;;;6.03;3.92;;;;;;;23.90;37.42;99818.41;5121218;28;20096;-62
2023/10/14 11:13:11;;;;;;;9.13;4.32;;;;;;;23.86;38.29;99817.28;5120856;28;20035;-62
2023/10/14 11:15:38;;;;;;;6.30;4.00;;;;;;;23.84;38.11;99800.47;5122751;27;20322;-62
2023/10/14 11:18:04;;;;;;;8.10;4.40;;;;;;;23.80;38.06;99791.22;5124906;27;20076;-62
2023/10/14 11:20:41;;;;;;;6.00;4.43;;;;;;;24.03;37.54;99798.34;5124797;27;20102;-62
2023/10/14 11:23:11;;;;;;;9.38;4.00;;;;;;;24.04;37.17;99791.88;5125020;27;20085;-62
2023/10/14 11:25:40;;;;;;;10.05;3.92;;;;;;;24.05;37.32;99791.63;5124820;27;20047;-62
2023/10/14 11:28:07;;;;;;;6.85;4.13;;;;;;;23.98;37.69;99785.56;5123972;27;20050;-62
2023/10/14 11:30:33;;;;;;;11.98;4.10;;;;;;;24.18;37.70;99785.03;5123962;27;20067;-63
2023/10/14 11:33:02;;;;;;;7.00;4.30;;;;;;;24.29;36.94;99784.13;5124298;27;20043;-62
2023/10/14 11:35:30;;;;;;;7.85;3.78;;;;;;;24.18;36.78;99780.44;5124437;27;20067;-62
2023/10/14 11:38:00;;;;;;;5.47;4.18;;;;;;;24.26;36.73;99776.50;5123772;27;20070;-62
2023/10/14 11:40:32;;;;;;;6.75;3.80;;;;;;;24.40;36.32;99775.06;5124286;27;20037;-62
2023/10/14 11:42:58;;;;;;;5.32;3.40;;;;;;;24.31;36.17;99768.47;5123709;27;20045;-62
2023/10/14 11:45:24;;;;;;;4.85;3.90;;;;;;;24.28;36.56;99758.16;5124343;27;20054;-62
2023/10/14 11:47:51;;;;;;;10.73;5.05;;;;;;;24.30;36.14;99766.00;5123763;27;20344;-62
2023/10/14 11:50:17;;;;;;;7.72;4.35;;;;;;;24.37;35.81;99759.34;5132862;27;20375;-62
2023/10/14 11:52:46;;;;;;;6.45;4.40;;;;;;;24.39;35.95;99738.25;5124039;27;20431;-62
2023/10/14 11:55:14;;;;;;;8.13;5.32;;;;;;;24.56;35.20;99737.38;5125474;27;20088;-62
2023/10/14 11:57:48;;;;;;;5.15;4.13;;;;;;;24.59;34.93;99734.97;5124237;27;20055;-62
2023/10/14 12:00:20;;;;;;;7.88;5.22;;;;;;;24.58;34.85;99736.03;5124512;27;20027;-62
2023/10/14 12:02:46;;;;;;;6.57;5.20;;;;;;;24.57;35.46;99730.88;5124533;27;20090;-62
2023/10/14 12:05:12;;;;;;;13.30;5.63;;;;;;;24.79;34.75;99731.66;5131995;27;20249;-62